Time;durP1;ratioP1;P1;durP2;ratioP2;P2;SDS_P1;SDS_P2;PMS_P1;PMS_P2;Temp;Humidity;BMP_temperature;BMP_pressure;BME280_temperature;BME280_humidity;BME280_pressure;Samples;Min_cycle;Max_cycle;Signal;HPM_P1;HPM_P2
2023/03/18 00:01:16;;;;;;;;;53.25;41.75;;;;;14.38;69.32;100384.94;5037410;28;45275;-71
2023/03/18 00:03:42;;;;;;;;;50.50;40.25;;;;;14.18;69.08;100357.09;5034992;28;45338;-72
2023/03/18 00:06:17;;;;;;;;;26.25;25.25;;;;;14.44;69.47;100407.41;5038741;28;45079;-75
2023/03/18 00:08:45;;;;;;;;;25.75;21.75;;;;;14.37;69.68;100395.72;5030749;28;45104;-73
2023/03/18 00:11:17;;;;;;;;;19.50;15.75;;;;;14.40;69.11;100421.69;5032465;28;45175;-75
2023/03/18 00:13:43;;;;;;;;;17.50;16.50;;;;;14.37;69.75;100417.22;5027105;28;45323;-75
2023/03/18 00:16:10;;;;;;;;;22.00;19.75;;;;;14.36;69.48;100423.47;5031776;28;45531;-75
2023/03/18 00:18:38;;;;;;;;;27.75;23.50;;;;;14.32;69.51;100417.19;5035550;28;45265;-72
2023/03/18 00:21:04;;;;;;;;;27.75;25.25;;;;;14.20;69.49;100398.28;5035698;28;45047;-69
2023/03/18 00:23:31;;;;;;;;;21.50;20.75;;;;;14.36;69.51;100429.75;5033885;28;45745;-77
2023/03/18 00:25:59;;;;;;;;;72.00;50.75;;;;;14.38;69.89;100432.44;5034364;28;45654;-73
2023/03/18 00:28:30;;;;;;;;;41.50;35.00;;;;;14.38;69.42;100427.06;5037686;28;45271;-71
2023/03/18 00:31:01;;;;;;;;;54.50;43.50;;;;;14.39;69.67;100426.19;5055682;28;45120;-74
2023/03/18 00:33:27;;;;;;;;;25.75;24.00;;;;;14.10;69.44;100381.22;5051248;28;45293;-72
2023/03/18 00:35:53;;;;;;;;;26.00;19.50;;;;;14.35;69.63;100427.97;5050749;28;45778;-74
2023/03/18 00:38:23;;;;;;;;;27.75;26.00;;;;;14.09;69.08;100395.56;5038476;28;45279;-74
2023/03/18 00:41:00;;;;;;;;;31.50;27.50;;;;;14.13;68.98;100410.78;5047109;28;45021;-69
2023/03/18 00:43:32;;;;;;;;;23.75;22.75;;;;;14.08;68.77;100404.50;5041849;28;44664;-76
2023/03/18 00:45:59;;;;;;;;;31.75;28.50;;;;;14.13;69.33;100426.91;5033478;28;46069;-64
2023/03/18 00:48:29;;;;;;;;;28.50;21.00;;;;;14.11;68.79;100426.00;5041785;28;45310;-66
2023/03/18 00:50:55;;;;;;;;;36.25;28.00;;;;;13.79;68.69;100380.13;5036331;28;45166;-75
2023/03/18 00:53:22;;;;;;;;;12.75;12.25;;;;;14.08;68.82;100427.78;5036351;28;44978;-73
2023/03/18 00:55:47;;;;;;;;;26.25;18.25;;;;;13.99;68.89;100405.34;5019783;28;45861;-76
2023/03/18 00:58:13;;;;;;;;;39.00;32.25;;;;;13.57;68.44;100330.75;5013352;28;45220;-71
2023/03/18 01:00:40;;;;;;;;;23.00;18.50;;;;;13.89;68.07;100397.19;5021553;28;45617;-74
2023/03/18 01:03:07;;;;;;;;;19.75;17.50;;;;;13.93;67.87;100407.09;5035168;28;44894;-70
2023/03/18 01:05:34;;;;;;;;;29.25;26.25;;;;;13.97;67.62;100415.19;5034537;28;45467;-78
2023/03/18 01:08:00;;;;;;;;;22.25;19.25;;;;;13.83;67.73;100388.22;5037453;28;45171;-74
2023/03/18 01:10:27;;;;;;;;;15.25;13.75;;;;;13.92;67.59;100418.72;5034728;28;45153;-75
2023/03/18 01:12:53;;;;;;;;;18.50;14.75;;;;;13.30;67.08;100317.97;5036707;28;45477;-75
2023/03/18 01:15:20;;;;;;;;;12.50;12.50;;;;;13.81;66.94;100414.16;5033038;28;45475;-77
2023/03/18 01:17:47;;;;;;;;;9.67;9.67;;;;;13.86;66.42;100424.03;5034783;28;45128;-76
2023/03/18 01:20:18;;;;;;;;;0.00;0.00;;;;;13.66;66.87;100394.34;5026033;28;45637;-72
2023/03/18 01:22:44;;;;;;;;;12.75;10.75;;;;;13.82;66.86;100420.41;5032950;28;45612;-73
2023/03/18 01:25:11;;;;;;;;;13.50;13.50;;;;;13.77;66.98;100417.69;5036013;28;46752;-72
2023/03/18 01:27:37;;;;;;;;;15.00;12.50;;;;;13.78;67.28;100418.63;5037920;28;45105;-77
2023/03/18 01:30:05;;;;;;;;;18.50;17.25;;;;;13.57;66.52;100376.38;5034291;28;45563;-73
2023/03/18 01:32:30;;;;;;;;;11.00;11.00;;;;;13.80;66.59;100409.66;5026536;28;45450;-73
2023/03/18 01:34:58;;;;;;;;;11.50;11.00;;;;;13.38;66.69;100338.66;5026398;28;46583;-76
2023/03/18 01:37:24;;;;;;;;;17.00;14.00;;;;;13.13;66.73;100283.84;5035505;28;44931;-72
2023/03/18 01:39:49;;;;;;;;;13.00;9.50;;;;;13.74;66.75;100409.66;5031988;28;45267;-72
2023/03/18 01:42:17;;;;;;;;;11.50;11.25;;;;;13.40;66.76;100344.03;5034664;28;45262;-76
2023/03/18 01:44:43;;;;;;;;;14.00;12.50;;;;;13.77;66.53;100400.69;5031283;28;46262;-71
2023/03/18 01:47:09;;;;;;;;;29.50;25.00;;;;;13.74;66.94;100401.59;5032839;28;45392;-75
2023/03/18 01:49:46;;;;;;;;;15.25;11.00;;;;;13.67;67.07;100378.25;5033673;28;46643;-77
2023/03/18 01:52:15;;;;;;;;;14.25;11.50;;;;;13.76;66.66;100390.81;5031437;28;44950;-78
2023/03/18 01:54:50;;;;;;;;;12.50;12.25;;;;;13.67;67.71;100388.09;5032100;28;45695;-74
2023/03/18 01:57:17;;;;;;;;;13.00;9.00;;;;;13.66;67.33;100388.97;5031122;28;45420;-76
2023/03/18 01:59:46;;;;;;;;;18.50;15.50;;;;;13.72;66.82;100399.75;5014421;28;45222;-77
2023/03/18 02:02:14;;;;;;;;;15.00;13.25;;;;;13.40;67.01;100354.78;5039923;28;45230;-77
2023/03/18 02:04:44;;;;;;;;;16.25;13.25;;;;;13.69;67.27;100405.09;5036282;28;46679;-77
2023/03/18 02:07:19;;;;;;;;;11.50;10.00;;;;;13.69;67.23;100403.31;5017940;28;45102;-77
2023/03/18 02:09:46;;;;;;;;;14.50;13.00;;;;;13.32;67.42;100335.00;5006409;28;45337;-76
2023/03/18 02:12:16;;;;;;;;;12.75;10.75;;;;;13.69;66.92;100395.25;5017456;28;45856;-79
2023/03/18 02:14:42;;;;;;;;;11.50;11.00;;;;;13.36;67.50;100344.88;5031034;28;45250;-76
2023/03/18 02:17:12;;;;;;;;;15.00;12.00;;;;;13.41;67.32;100356.56;5023029;28;45503;-77
2023/03/18 02:19:47;;;;;;;;;11.75;10.25;;;;;13.64;66.84;100389.88;5014477;28;45406;-73
2023/03/18 02:22:37;;;;;;;;;13.75;10.75;;;;;13.63;67.25;100398.81;5029966;28;45802;-77
2023/03/18 02:25:36;;;;;;;;;14.25;12.50;;;;;13.55;67.35;100407.69;5034132;28;45194;-73
2023/03/18 02:28:06;;;;;;;;;11.25;10.00;;;;;13.24;66.86;100351.91;5015161;28;45577;-74
2023/03/18 02:30:45;;;;;;;;;7.00;6.25;;;;;13.57;67.24;100409.47;5022800;28;46781;-75
2023/03/18 02:33:10;;;;;;;;;10.25;9.75;;;;;13.56;67.10;100409.47;5017840;28;45546;-76
2023/03/18 02:35:37;;;;;;;;;16.00;11.00;;;;;13.40;67.15;100371.78;5030518;28;45691;-76
2023/03/18 02:38:03;;;;;;;;;9.50;8.25;;;;;13.14;66.67;100328.56;5019682;28;45248;-75
2023/03/18 02:40:36;;;;;;;;;11.25;10.50;;;;;13.20;66.43;100331.31;5024692;28;45454;-78
2023/03/18 02:43:26;;;;;;;;;11.75;11.50;;;;;13.56;66.78;100405.03;5017547;28;45707;-77
2023/03/18 02:46:10;;;;;;;;;11.00;8.25;;;;;13.57;66.77;100398.75;5019869;28;46360;-76
2023/03/18 02:48:39;;;;;;;;;9.00;8.75;;;;;13.47;66.60;100395.97;5034377;28;45204;-78
2023/03/18 02:51:06;;;;;;;;;8.50;7.75;;;;;13.30;66.51;100372.53;5030783;28;45200;-77
2023/03/18 02:53:32;;;;;;;;;9.50;9.50;;;;;13.58;66.60;100419.34;5038129;28;45270;-72
2023/03/18 02:55:57;;;;;;;;;8.75;8.75;;;;;13.37;66.30;100385.16;5030711;28;45619;-71
2023/03/18 02:58:23;;;;;;;;;8.00;8.00;;;;;13.63;66.19;100411.34;5039271;28;45561;-75
2023/03/18 03:00:48;;;;;;;;;8.75;6.50;;;;;13.65;65.85;100404.19;5032604;28;45562;-73
2023/03/18 03:03:14;;;;;;;;;9.25;8.00;;;;;13.37;65.91;100358.31;5038751;28;45942;-74
2023/03/18 03:05:39;;;;;;;;;10.75;10.00;;;;;13.34;65.81;100344.00;5041079;28;45467;-75
2023/03/18 03:08:09;;;;;;;;;8.00;6.33;;;;;13.69;66.06;100406.00;5040560;28;45138;-75
2023/03/18 03:10:35;;;;;;;;;9.67;7.67;;;;;13.46;65.51;100373.59;5037009;28;45145;-76
2023/03/18 03:13:01;;;;;;;;;10.00;7.00;;;;;13.68;65.70;100409.59;5030604;28;45577;-77
2023/03/18 03:15:27;;;;;;;;;9.00;7.00;;;;;13.68;65.09;100420.31;5024407;28;46337;-74
2023/03/18 03:17:53;;;;;;;;;5.00;5.00;;;;;13.55;65.25;100391.59;5021337;28;45530;-76
2023/03/18 03:20:19;;;;;;;;;6.50;6.50;;;;;13.65;65.11;100417.59;5027767;28;45507;-77
2023/03/18 03:22:45;;;;;;;;;10.67;8.00;;;;;13.66;65.08;100424.78;5022353;28;45416;-76
2023/03/18 03:25:11;;;;;;;;;7.67;7.00;;;;;13.55;64.96;100402.31;5025093;28;46659;-77
2023/03/18 03:27:36;;;;;;;;;11.50;8.25;;;;;13.61;65.18;100414.00;5020873;28;45458;-72
2023/03/18 03:30:05;;;;;;;;;12.75;9.75;;;;;13.65;64.92;100420.28;5022908;28;45454;-78
2023/03/18 03:32:30;;;;;;;;;9.75;9.75;;;;;13.53;65.54;100415.72;5015819;28;45600;-75
2023/03/18 03:34:57;;;;;;;;;7.75;7.75;;;;;13.48;65.32;100405.81;5017415;28;47038;-76
2023/03/18 03:37:22;;;;;;;;;7.75;7.75;;;;;13.56;64.91;100415.75;5021995;28;45874;-76
2023/03/18 03:39:47;;;;;;;;;13.00;10.00;;;;;13.55;65.01;100413.94;5024711;28;45419;-75
2023/03/18 03:42:14;;;;;;;;;8.00;7.75;;;;;13.55;65.46;100413.94;5015576;28;46154;-76
2023/03/18 03:44:39;;;;;;;;;6.67;5.67;;;;;13.48;65.33;100420.16;5020163;28;45605;-73
2023/03/18 03:47:06;;;;;;;;;8.00;6.33;;;;;13.23;65.53;100385.00;5016677;28;45473;-76
2023/03/18 03:49:31;;;;;;;;;9.25;8.50;;;;;13.49;65.70;100429.97;5021116;28;45506;-73
2023/03/18 03:51:57;;;;;;;;;9.00;8.50;;;;;13.23;65.36;100376.97;5025236;28;45755;-75
2023/03/18 03:54:24;;;;;;;;;7.75;7.75;;;;;13.30;65.17;100391.31;5022725;28;45610;-73
2023/03/18 03:56:50;;;;;;;;;8.50;6.25;;;;;13.55;65.71;100438.09;5024289;28;45328;-76
2023/03/18 03:59:17;;;;;;;;;10.75;10.50;;;;;13.54;65.38;100436.28;5028811;28;45368;-74
2023/03/18 04:01:43;;;;;;;;;10.50;8.00;;;;;13.55;65.83;100439.91;5027034;28;45305;-75
2023/03/18 04:04:09;;;;;;;;;15.50;13.25;;;;;13.30;66.54;100398.44;5023322;28;46157;-77
2023/03/18 04:06:35;;;;;;;;;13.75;10.00;;;;;13.48;66.00;100441.63;5014058;28;45576;-73
2023/03/18 04:09:02;;;;;;;;;11.00;9.50;;;;;13.38;67.29;100429.91;5032968;28;45176;-74
2023/03/18 04:11:28;;;;;;;;;10.50;9.00;;;;;13.24;67.91;100404.69;5015485;28;45476;-73
2023/03/18 04:13:54;;;;;;;;;20.25;15.25;;;;;13.34;67.57;100433.41;5005756;28;46494;-76
2023/03/18 04:16:20;;;;;;;;;4.75;3.00;;;;;13.21;67.64;100415.38;5019991;28;45630;-76
2023/03/18 04:18:46;;;;;;;;;7.25;7.25;;;;;13.26;68.02;100430.66;5022434;28;45521;-74
2023/03/18 04:21:11;;;;;;;;;8.00;8.00;;;;;13.24;68.56;100428.81;5019131;28;45551;-75
2023/03/18 04:23:37;;;;;;;;;3.75;3.75;;;;;13.32;68.94;100436.94;5019577;28;45930;-75
2023/03/18 04:26:04;;;;;;;;;9.00;8.25;;;;;13.20;68.39;100425.22;5019172;28;45413;-76
2023/03/18 04:28:30;;;;;;;;;8.75;8.25;;;;;13.33;69.13;100445.06;5014166;28;45387;-71
2023/03/18 04:30:55;;;;;;;;;6.00;6.00;;;;;12.82;68.71;100355.97;5016976;28;45454;-74
2023/03/18 04:33:21;;;;;;;;;7.00;7.00;;;;;13.04;69.58;100383.00;5017068;28;45787;-76
2023/03/18 04:35:47;;;;;;;;;6.75;6.75;;;;;13.34;68.37;100425.38;5016026;28;45746;-74
2023/03/18 04:38:13;;;;;;;;;7.00;7.00;;;;;13.46;68.50;100451.41;5022581;28;45432;-75
2023/03/18 04:40:39;;;;;;;;;7.33;7.00;;;;;13.48;68.54;100438.03;5029775;28;45588;-75
2023/03/18 04:43:04;;;;;;;;;9.25;8.00;;;;;13.45;68.98;100433.53;5035281;28;45430;-76
2023/03/18 04:45:30;;;;;;;;;5.50;5.00;;;;;13.12;68.89;100380.44;5032634;28;44924;-72
2023/03/18 04:47:55;;;;;;;;;7.25;7.25;;;;;13.49;68.90;100450.56;5033653;28;45151;-77
2023/03/18 04:50:22;;;;;;;;;8.00;8.00;;;;;12.72;69.20;100311.19;5038892;28;46134;-77
2023/03/18 04:52:48;;;;;;;;;8.00;6.75;;;;;13.37;68.19;100420.03;5029974;28;46123;-77
2023/03/18 04:55:16;;;;;;;;;7.50;7.50;;;;;12.87;68.52;100339.94;5033398;28;45438;-76
2023/03/18 04:57:43;;;;;;;;;5.50;5.00;;;;;13.47;69.12;100445.19;5025048;28;45450;-77
2023/03/18 05:00:12;;;;;;;;;9.50;5.75;;;;;13.40;68.69;100437.97;5021744;28;45364;-74
2023/03/18 05:02:38;;;;;;;;;8.25;6.75;;;;;13.38;68.91;100431.66;5026529;28;46936;-76
2023/03/18 05:05:04;;;;;;;;;7.75;7.75;;;;;13.35;68.72;100434.34;5037127;28;45156;-72
2023/03/18 05:07:30;;;;;;;;;10.00;8.00;;;;;13.17;69.18;100419.81;5032836;28;45074;-73
2023/03/18 05:09:56;;;;;;;;;10.25;8.25;;;;;12.76;69.41;100366.63;5032599;28;45145;-77
2023/03/18 05:12:25;;;;;;;;;10.25;10.25;;;;;13.20;69.48;100435.94;5022856;28;45336;-69
2023/03/18 05:14:51;;;;;;;;;13.25;11.00;;;;;12.80;70.06;100368.47;5028488;28;45371;-74
2023/03/18 05:17:17;;;;;;;;;8.75;7.00;;;;;13.06;69.89;100408.94;5025273;28;45686;-69
2023/03/18 05:19:45;;;;;;;;;10.25;8.25;;;;;13.11;70.24;100424.22;5004088;28;45681;-67
2023/03/18 05:22:14;;;;;;;;;11.75;10.00;;;;;12.90;70.01;100401.63;5028191;28;46510;-70
2023/03/18 05:24:40;;;;;;;;;14.25;10.00;;;;;13.11;69.97;100430.47;5030044;28;45471;-66
2023/03/18 05:27:06;;;;;;;;;8.50;8.50;;;;;12.81;70.31;100378.28;5027770;28;45247;-68
2023/03/18 05:29:32;;;;;;;;;7.50;7.00;;;;;12.21;69.98;100273.13;4996867;28;45500;-70
2023/03/18 05:31:57;;;;;;;;;12.25;9.75;;;;;12.87;70.12;100380.16;5017364;28;46441;-73
2023/03/18 05:34:23;;;;;;;;;9.00;7.00;;;;;13.14;69.66;100435.88;5014131;28;45279;-68
2023/03/18 05:36:48;;;;;;;;;5.75;5.00;;;;;12.93;69.80;100388.25;5016321;28;45616;-69
2023/03/18 05:39:15;;;;;;;;;6.00;6.00;;;;;13.11;69.85;100430.47;5017816;28;45815;-68
2023/03/18 05:41:40;;;;;;;;;6.50;6.00;;;;;13.05;70.20;100428.63;5020191;28;45749;-71
2023/03/18 05:44:06;;;;;;;;;10.00;7.50;;;;;12.86;70.19;100399.81;5015922;28;45524;-76
2023/03/18 05:46:32;;;;;;;;;6.75;5.25;;;;;12.79;70.03;100384.53;5015766;28;45805;-66
2023/03/18 05:48:57;;;;;;;;;9.50;6.50;;;;;12.81;69.65;100399.75;5017203;28;45490;-73
2023/03/18 05:51:23;;;;;;;;;8.25;8.25;;;;;12.89;70.11;100407.88;5008669;28;46087;-74
2023/03/18 05:53:49;;;;;;;;;9.75;8.00;;;;;12.93;70.48;100414.19;5015145;28;45488;-72
2023/03/18 05:56:15;;;;;;;;;8.25;8.25;;;;;12.97;70.53;100424.97;5019770;28;45432;-73
2023/03/18 05:58:40;;;;;;;;;7.75;7.00;;;;;12.29;70.33;100303.56;5014925;28;45578;-78
2023/03/18 06:01:06;;;;;;;;;10.00;8.00;;;;;12.89;70.23;100408.78;5004244;28;47708;-74
2023/03/18 06:03:33;;;;;;;;;11.00;9.00;;;;;12.73;70.02;100388.03;5037253;28;45172;-71
2023/03/18 06:06:00;;;;;;;;;11.50;8.75;;;;;12.88;70.91;100425.72;5033285;28;45118;-74
2023/03/18 06:08:27;;;;;;;;;8.00;8.00;;;;;12.77;70.31;100418.44;5032542;28;45125;-73
2023/03/18 06:10:53;;;;;;;;;9.50;8.00;;;;;12.61;71.08;100383.44;5028958;28;45674;-76
2023/03/18 06:13:19;;;;;;;;;10.00;9.75;;;;;12.55;71.00;100369.94;5033707;28;44868;-75
2023/03/18 06:15:47;;;;;;;;;9.75;8.50;;;;;12.46;70.18;100354.66;5031206;28;45214;-77
2023/03/18 06:18:13;;;;;;;;;12.25;8.00;;;;;12.91;70.45;100427.56;5033009;28;45256;-73
2023/03/18 06:20:40;;;;;;;;;7.50;6.50;;;;;12.96;70.32;100427.63;5029515;28;45992;-68
2023/03/18 06:23:08;;;;;;;;;10.75;8.00;;;;;12.72;70.18;100384.47;5023241;28;45360;-77
2023/03/18 06:25:38;;;;;;;;;1.00;1.00;;;;;12.95;70.15;100429.41;5030844;28;45602;-69
2023/03/18 06:28:03;;;;;;;;;9.75;8.25;;;;;12.80;70.15;100408.69;5031999;28;45864;-73
2023/03/18 06:30:28;;;;;;;;;6.75;6.00;;;;;12.98;70.28;100426.75;5040444;28;46099;-69
2023/03/18 06:32:54;;;;;;;;;10.50;10.50;;;;;12.64;70.13;100362.03;5031821;28;48519;-69
2023/03/18 06:35:20;;;;;;;;;5.75;5.00;;;;;13.04;69.90;100439.34;5033660;28;45172;-68
2023/03/18 06:37:46;;;;;;;;;5.00;5.00;;;;;13.00;69.43;100445.53;5029854;28;45120;-68
2023/03/18 06:40:11;;;;;;;;;7.00;6.00;;;;;12.86;69.75;100422.13;5034464;28;46130;-71
2023/03/18 06:42:36;;;;;;;;;4.33;4.00;;;;;12.92;69.46;100437.41;5028698;28;45253;-71
2023/03/18 06:45:02;;;;;;;;;8.67;5.67;;;;;12.92;70.22;100437.41;5028040;28;46157;-67
2023/03/18 06:47:28;;;;;;;;;8.25;5.25;;;;;13.01;69.12;100453.59;5028069;28;45513;-67
2023/03/18 06:49:55;;;;;;;;;6.33;5.67;;;;;13.03;69.26;100450.94;5032618;28;45618;-68
2023/03/18 06:52:22;;;;;;;;;5.00;5.00;;;;;12.99;69.09;100452.69;5031699;28;45044;-67
2023/03/18 06:54:47;;;;;;;;;6.25;5.25;;;;;12.77;70.06;100410.41;5019244;28;45404;-65
2023/03/18 06:57:13;;;;;;;;;5.33;5.33;;;;;12.83;69.85;100434.63;5013521;28;45668;-67
2023/03/18 06:59:38;;;;;;;;;4.75;4.75;;;;;12.85;69.36;100447.19;5021512;28;46500;-66
2023/03/18 07:02:04;;;;;;;;;6.00;4.33;;;;;12.73;69.48;100429.13;5024008;28;45341;-72
2023/03/18 07:04:32;;;;;;;;;4.00;3.67;;;;;12.82;69.73;100446.22;5031685;28;45337;-70
2023/03/18 07:06:59;;;;;;;;;4.00;4.00;;;;;12.68;69.49;100441.56;5030077;28;45105;-69
2023/03/18 07:09:25;;;;;;;;;6.67;6.67;;;;;12.63;69.22;100424.53;5033110;28;45683;-71
2023/03/18 07:11:50;;;;;;;;;6.00;4.00;;;;;12.61;69.77;100431.66;5013765;28;45172;-73
2023/03/18 07:14:17;;;;;;;;;5.00;5.00;;;;;12.64;69.91;100437.06;5029141;28;45611;-69
2023/03/18 07:16:43;;;;;;;;;5.33;3.67;;;;;12.74;69.80;100451.50;5031496;28;45103;-69
2023/03/18 07:19:08;;;;;;;;;4.00;4.00;;;;;12.58;68.98;100426.25;5017165;28;47458;-70
2023/03/18 07:21:34;;;;;;;;;5.00;4.33;;;;;12.71;70.18;100454.13;5034330;28;44892;-71
2023/03/18 07:24:00;;;;;;;;;6.67;6.67;;;;;12.81;69.97;100460.50;5030300;28;45318;-70
2023/03/18 07:26:26;;;;;;;;;5.67;4.33;;;;;12.70;69.30;100433.56;5021402;28;45571;-68
2023/03/18 07:28:52;;;;;;;;;4.67;4.67;;;;;12.69;69.33;100437.13;5017333;28;46038;-65
2023/03/18 07:31:17;;;;;;;;;4.00;4.00;;;;;12.64;69.09;100438.88;5023275;28;45660;-73
2023/03/18 07:33:42;;;;;;;;;6.50;5.75;;;;;12.56;69.70;100422.69;5036447;28;45152;-73
2023/03/18 07:36:08;;;;;;;;;6.25;4.00;;;;;12.73;69.51;100463.97;5007808;28;45356;-73
2023/03/18 07:38:34;;;;;;;;;3.67;3.67;;;;;12.71;68.62;100467.53;5011125;28;45857;-70
2023/03/18 07:41:00;;;;;;;;;7.00;4.33;;;;;12.70;69.16;100469.31;5018374;28;45633;-75
2023/03/18 07:43:26;;;;;;;;;4.33;4.33;;;;;12.74;69.29;100480.97;5033311;28;44887;-74
2023/03/18 07:45:51;;;;;;;;;10.50;6.50;;;;;12.75;69.72;100476.50;5028741;28;45117;-69
2023/03/18 07:48:17;;;;;;;;;3.33;3.33;;;;;12.79;68.86;100481.06;5011632;28;46752;-72
2023/03/18 07:50:42;;;;;;;;;7.00;4.75;;;;;12.81;69.38;100476.59;5027300;28;45175;-69
2023/03/18 07:53:08;;;;;;;;;4.33;3.00;;;;;12.83;69.35;100474.84;5033133;28;45293;-69
2023/03/18 07:55:36;;;;;;;;;9.00;5.25;;;;;12.79;69.35;100456.91;5031718;28;45578;-73
2023/03/18 07:58:03;;;;;;;;;5.25;4.00;;;;;12.66;67.85;100431.72;5026416;28;45492;-73
2023/03/18 08:00:30;;;;;;;;;4.00;4.00;;;;;12.96;68.99;100474.09;5025186;28;45383;-73
2023/03/18 08:02:55;;;;;;;;;3.67;3.67;;;;;12.93;68.49;100466.00;5027891;28;46207;-75
2023/03/18 08:05:21;;;;;;;;;4.25;4.25;;;;;12.90;67.76;100456.16;5025635;28;45267;-69
2023/03/18 08:07:47;;;;;;;;;3.67;3.67;;;;;13.05;67.33;100473.31;5032210;28;45287;-71
2023/03/18 08:10:14;;;;;;;;;4.00;3.00;;;;;12.73;67.86;100415.72;5032634;28;45132;-71
2023/03/18 08:12:41;;;;;;;;;4.67;4.00;;;;;13.04;68.42;100464.38;5034252;28;45170;-71
2023/03/18 08:15:08;;;;;;;;;4.67;4.00;;;;;13.09;67.57;100462.63;5033232;28;45343;-72
2023/03/18 08:17:34;;;;;;;;;5.00;5.00;;;;;13.13;68.24;100468.03;5019209;28;45719;-75
2023/03/18 08:19:59;;;;;;;;;4.00;4.00;;;;;13.22;67.63;100468.16;5032991;28;45106;-67
2023/03/18 08:22:25;;;;;;;;;7.00;4.00;;;;;13.34;67.71;100479.03;5037439;28;45164;-73
2023/03/18 08:24:50;;;;;;;;;7.00;6.67;;;;;13.37;67.82;100473.69;5029065;28;45085;-72
2023/03/18 08:27:16;;;;;;;;;6.00;6.00;;;;;13.34;67.20;100452.19;5035363;28;45332;-75
2023/03/18 08:29:42;;;;;;;;;5.67;4.67;;;;;13.42;66.69;100460.34;5028820;28;45225;-73
2023/03/18 08:32:08;;;;;;;;;6.00;4.00;;;;;13.73;67.05;100496.44;5029981;28;45063;-73
2023/03/18 08:34:34;;;;;;;;;7.67;6.33;;;;;13.79;66.67;100504.56;5032091;28;45962;-73
2023/03/18 08:37:00;;;;;;;;;3.33;3.00;;;;;13.76;66.85;100485.72;5016267;28;47328;-73
2023/03/18 08:39:25;;;;;;;;;4.67;3.67;;;;;13.90;65.85;100498.38;5033616;28;45236;-72
2023/03/18 08:41:51;;;;;;;;;6.67;6.00;;;;;13.64;65.79;100448.00;5011985;28;45197;-66
2023/03/18 08:44:17;;;;;;;;;5.00;5.00;;;;;13.86;65.45;100480.41;5030594;28;45131;-70
2023/03/18 08:46:42;;;;;;;;;7.67;4.67;;;;;13.90;65.31;100474.19;5037921;28;46392;-73
2023/03/18 08:49:09;;;;;;;;;3.33;3.33;;;;;13.83;64.96;100470.56;5012041;28;46201;-70
2023/03/18 08:51:35;;;;;;;;;3.00;3.00;;;;;13.83;65.37;100463.41;5037140;28;45438;-72
2023/03/18 08:54:00;;;;;;;;;4.67;4.67;;;;;13.97;65.32;100485.03;5037733;28;44959;-70
2023/03/18 08:56:26;;;;;;;;;3.00;2.67;;;;;14.05;64.98;100479.69;5010427;28;45440;-70
2023/03/18 08:58:52;;;;;;;;;6.33;5.67;;;;;14.12;64.76;100481.56;4998827;28;45510;-69
2023/03/18 09:01:21;;;;;;;;;7.67;6.67;;;;;14.08;64.39;100452.84;5023257;28;45785;-77
2023/03/18 09:03:50;;;;;;;;;5.00;5.00;;;;;14.33;64.49;100469.13;5026637;28;45451;-72
2023/03/18 09:06:19;;;;;;;;;6.67;5.00;;;;;14.29;64.25;100451.22;5007094;28;46883;-74
2023/03/18 09:08:45;;;;;;;;;6.33;6.33;;;;;14.35;63.69;100440.47;5021412;28;45556;-74
2023/03/18 09:11:12;;;;;;;;;8.67;7.67;;;;;14.54;63.93;100466.56;5002102;28;45751;-70
2023/03/18 09:13:37;;;;;;;;;11.25;9.25;;;;;14.40;63.01;100429.75;5025305;28;45649;-70
2023/03/18 09:16:04;;;;;;;;;10.00;7.33;;;;;14.51;62.52;100441.47;5018165;28;45482;-75
2023/03/18 09:18:30;;;;;;;;;11.00;8.33;;;;;14.69;62.54;100456.84;5000721;28;45575;-73
2023/03/18 09:20:58;;;;;;;;;8.67;7.33;;;;;14.83;62.24;100471.25;5013750;28;45644;-77
2023/03/18 09:23:25;;;;;;;;;9.67;7.67;;;;;14.91;61.77;100473.97;5025940;28;45688;-74
2023/03/18 09:25:50;;;;;;;;;8.25;7.00;;;;;15.01;61.64;100467.72;5034587;28;46727;-76
2023/03/18 09:28:18;;;;;;;;;10.00;7.00;;;;;15.08;61.11;100474.94;5036204;28;45215;-76
2023/03/18 09:30:45;;;;;;;;;10.33;8.00;;;;;15.15;60.70;100478.53;5017034;28;45589;-74
2023/03/18 09:33:15;;;;;;;;;9.00;7.67;;;;;15.13;60.33;100477.66;5014494;28;45812;-71
2023/03/18 09:35:44;;;;;;;;;7.33;7.00;;;;;15.22;60.73;100468.69;5020160;28;46005;-75
2023/03/18 09:38:15;;;;;;;;;9.00;7.67;;;;;15.30;60.36;100477.69;5008932;28;45663;-73
2023/03/18 09:40:54;;;;;;;;;7.67;7.67;;;;;15.37;60.00;100473.22;5000087;28;46185;-73
2023/03/18 09:43:33;;;;;;;;;6.67;5.67;;;;;15.47;59.20;100469.63;5016862;28;45255;-75
2023/03/18 09:46:19;;;;;;;;;7.33;6.00;;;;;15.53;59.08;100464.28;5010932;28;45453;-75
2023/03/18 09:48:54;;;;;;;;;7.67;5.67;;;;;15.61;58.78;100464.28;5014885;28;45520;-76
2023/03/18 09:51:49;;;;;;;;;3.00;3.00;;;;;15.47;58.45;100423.88;5032772;28;45291;-75
2023/03/18 09:54:23;;;;;;;;;6.00;3.67;;;;;16.27;57.65;100461.63;5029394;28;45404;-73
2023/03/18 09:56:54;;;;;;;;;4.67;4.67;;;;;17.03;55.83;100464.13;5025317;28;45413;-70
2023/03/18 09:59:28;;;;;;;;;5.67;4.00;;;;;17.42;53.99;100465.69;5024534;28;45372;-74
2023/03/18 10:01:58;;;;;;;;;4.33;3.33;;;;;17.83;52.88;100448.25;5031557;28;45269;-75
2023/03/18 10:05:09;;;;;;;;;8.00;6.33;;;;;18.43;51.57;100446.84;5008143;28;45353;-72
2023/03/18 10:07:40;;;;;;;;;4.33;4.33;;;;;18.50;50.49;100436.84;5022220;28;45271;-79
2023/03/18 10:10:10;;;;;;;;;6.00;3.33;;;;;18.51;49.96;100455.78;5027114;28;45547;-76
2023/03/18 10:12:45;;;;;;;;;6.00;4.00;;;;;18.36;49.97;100456.84;5018981;28;45673;-74
2023/03/18 10:15:23;;;;;;;;;4.67;3.00;;;;;17.72;50.60;100400.63;5001629;28;45491;-75
2023/03/18 10:17:56;;;;;;;;;3.67;3.00;;;;;17.87;50.83;100460.00;5026876;28;45431;-74
2023/03/18 10:20:59;;;;;;;;;0.33;0.00;;;;;17.67;51.18;100462.81;5026023;28;45598;-75
2023/03/18 10:23:57;;;;;;;;;5.00;3.00;;;;;17.55;52.14;100473.72;5014284;28;45517;-74
2023/03/18 10:26:32;;;;;;;;;3.33;2.00;;;;;17.44;51.19;100465.66;5021394;28;45513;-75
2023/03/18 10:29:20;;;;;;;;;3.67;2.33;;;;;17.40;52.38;100472.88;5019376;28;46639;-75
2023/03/18 10:32:15;;;;;;;;;4.00;3.67;;;;;17.34;52.58;100464.84;5023238;28;45527;-74
2023/03/18 10:34:56;;;;;;;;;1.33;1.33;;;;;17.17;51.67;100464.03;4999434;28;45391;-72
2023/03/18 10:37:49;;;;;;;;;4.67;3.67;;;;;17.05;51.38;100475.78;5019511;28;45540;-78
2023/03/18 10:40:19;;;;;;;;;3.00;2.33;;;;;16.97;51.66;100467.72;5018558;28;46493;-66
2023/03/18 10:42:49;;;;;;;;;3.33;3.00;;;;;16.79;51.89;100430.88;5025523;28;45411;-77
2023/03/18 10:45:23;;;;;;;;;2.00;1.33;;;;;16.98;52.29;100469.53;5019498;28;45415;-72
2023/03/18 10:48:03;;;;;;;;;3.00;3.00;;;;;17.08;51.64;100468.56;5022512;28;45532;-72
2023/03/18 10:50:39;;;;;;;;;5.33;4.33;;;;;17.15;52.06;100473.94;5021481;28;46048;-72
2023/03/18 10:53:13;;;;;;;;;3.67;3.00;;;;;17.17;50.93;100464.03;5025828;28;45522;-74
2023/03/18 10:56:04;;;;;;;;;1.00;0.67;;;;;15.95;50.40;100278.41;5020316;28;45376;-76
2023/03/18 10:58:29;;;;;;;;;4.00;2.00;;;;;16.83;50.30;100470.44;5019811;28;45587;-77
2023/03/18 11:00:55;;;;;;;;;2.67;2.67;;;;;16.71;50.82;100459.69;5016262;28;45424;-74
2023/03/18 11:03:35;;;;;;;;;2.00;2.00;;;;;16.36;51.07;100428.34;5024221;28;45420;-76
2023/03/18 11:06:04;;;;;;;;;2.00;2.00;;;;;16.41;51.12;100423.81;5022720;28;45527;-75
2023/03/18 11:08:39;;;;;;;;;1.00;1.00;;;;;16.34;51.01;100425.63;5021570;28;45500;-72
2023/03/18 11:11:27;;;;;;;;;2.33;1.33;;;;;16.68;50.80;100474.09;5022102;28;45998;-74
2023/03/18 11:14:06;;;;;;;;;3.67;2.33;;;;;16.64;50.71;100466.03;5023181;28;45572;-79
2023/03/18 11:16:45;;;;;;;;;4.67;3.00;;;;;16.75;50.12;100466.88;5021435;28;45905;-78
2023/03/18 11:19:46;;;;;;;;;2.67;2.67;;;;;16.83;50.10;100464.13;5019375;28;45241;-77
2023/03/18 11:22:17;;;;;;;;;2.33;2.00;;;;;16.87;49.90;100474.06;5021763;28;45545;-70
2023/03/18 11:24:59;;;;;;;;;4.00;3.00;;;;;16.85;49.67;100481.28;5029010;28;45404;-77
2023/03/18 11:27:28;;;;;;;;;2.00;1.67;;;;;16.46;49.77;100410.34;5019497;28;45560;-80